This is the latest recevied weather packets stored in our database for station/object K5NWZ. If no packets are shown the sender has not sent any weather packets the latest 10 day(s).
| Time | Temp. | Humidity | Pressure | Rain* | Wind** | Luminosity | Snow |
|---|---|---|---|---|---|---|---|
| 1777911859 | 20.56° C | 25% | 1017.1 hPa | 0 mm | - | 375 W/m² | - |
| 1777911556 | 20° C | 25% | 1017 hPa | 0 mm | - | 273 W/m² | - |
| 1777911252 | 20° C | 26% | 1017.3 hPa | 0 mm | - | 261 W/m² | - |
| 1777910949 | 20° C | 26% | 1017.3 hPa | 0 mm | - | 253 W/m² | - |
| 1777910647 | 19.44° C | 27% | 1017.1 hPa | 0 mm | - | 249 W/m² | - |
| 1777910343 | 19.44° C | 28% | 1017.3 hPa | 0 mm | - | 236 W/m² | - |
| 1777910040 | 19.44° C | 27% | 1017.5 hPa | 0 mm | - | 233 W/m² | - |
| 1777909737 | 18.89° C | 28% | 1017.4 hPa | 0 mm | - | 238 W/m² | - |
| 1777909434 | 18.89° C | 26% | 1017.5 hPa | 0 mm | - | 230 W/m² | - |
| 1777909133 | 18.33° C | 31% | 1017.4 hPa | 0 mm | - | 224 W/m² | - |
| 1777908830 | 17.78° C | 31% | 1017.5 hPa | 0 mm | - | 229 W/m² | - |
| 1777908526 | 17.78° C | 31% | 1017.6 hPa | 0 mm | - | 219 W/m² | - |
| 1777908224 | 17.78° C | 31% | 1017.6 hPa | 0 mm | - | 214 W/m² | - |
| 1777907920 | 16.67° C | 33% | 1017.7 hPa | 0 mm | - | 222 W/m² | - |
| 1777907615 | 16.11° C | 35% | 1017.7 hPa | 0 mm | - | 216 W/m² | - |
| 1777907311 | 16.11° C | 36% | 1017.3 hPa | 0 mm | - | 229 W/m² | - |
| 1777907008 | 15.56° C | 36% | 1017.6 hPa | 0 mm | - | 217 W/m² | - |
| 1777906706 | 15.56° C | 37% | 1017.6 hPa | 0 mm | - | 240 W/m² | - |
| 1777906401 | 15.56° C | 38% | 1017.6 hPa | 0 mm | - | 299 W/m² | - |
| 1777906098 | 14.44° C | 44% | 1017.8 hPa | 0 mm | - | 362 W/m² | - |
| 1777905795 | 13.89° C | 47% | 1017.8 hPa | 0 mm | - | 209 W/m² | - |
| 1777905493 | 13.33° C | 51% | 1017.7 hPa | 0 mm | - | 215 W/m² | - |
| 1777905189 | 13.33° C | 49% | 1017.7 hPa | 0 mm | - | 203 W/m² | - |
| 1777904887 | 13.33° C | 51% | 1017.8 hPa | 0 mm | - | 206 W/m² | - |
| 1777904584 | 13.33° C | 52% | 1017.7 hPa | 0 mm | - | 217 W/m² | - |
* Rain latest hour (hover to see other rain measurements)
** Current wind speed in m/s (hover to see current wind gust speed)